Weather reports worldwide

Advertisment
Dobbiaco, Italy (16033): temperature & dewpoint: 12.10.2018 19:00:00 - 18.10.2018 19:00:00 (CEST)Dobbiaco, Italy (16033): wind speed: 12.10.2018 19:00:00 - 18.10.2018 19:00:00 (CEST)Dobbiaco, Italy (16033): wind direction: 12.10.2018 19:00:00 - 18.10.2018 19:00:00 (CEST)Dobbiaco, Italy (16033): visibility: 12.10.2018 19:00:00 - 18.10.2018 19:00:00 (CEST)
Date & Time tt [°C] td [°C] ff [km/h] ff [kn] dd vv [km]
18.10.2018 19:00:00 - - - - - -
18.10.2018 18:00:00 14,0 8,0 - - - 10
18.10.2018 17:00:00 15,0 6,8 0 0 N 25
18.10.2018 16:00:00 16,0 7,0 - - - 10
18.10.2018 15:00:00 15,0 7,0 - - - 10
18.10.2018 14:00:00 14,4 6,7 0 0 N 25
18.10.2018 13:00:00 12,0 7,0 - - - 10
18.10.2018 12:00:00 10,0 6,0 - - - 10
18.10.2018 11:00:00 8,4 6,0 0 0 N 20
18.10.2018 10:00:00 6,0 5,0 - - - 10
18.10.2018 09:00:00 4,0 4,0 - - - 1,2
18.10.2018 08:00:00 4,2 3,5 0 0 N 12
18.10.2018 07:00:00 - - - - - -
18.10.2018 06:00:00 - - - - - -
18.10.2018 05:00:00 - - - - - -
18.10.2018 04:00:00 - - - - - -
18.10.2018 03:00:00 - - - - - -
18.10.2018 02:00:00 - - - - - -
18.10.2018 01:00:00 - - - - - -
18.10.2018 00:00:00 - - - - - -
17.10.2018 23:00:00 - - - - - -
17.10.2018 22:00:00 - - - - - -
17.10.2018 21:00:00 - - - - - -
17.10.2018 20:00:00 10,8 6,7 8 4 E 12
17.10.2018 19:00:00 11,0 6,0 5 3 - 10
17.10.2018 18:00:00 11,0 5,0 8 4 - 10
17.10.2018 17:00:00 12,2 4,7 9 5 E 25
17.10.2018 16:00:00 13,0 5,0 8 4 - 10
17.10.2018 15:00:00 14,0 8,0 5 3 - 10
17.10.2018 14:00:00 12,8 7,5 0 0 N 25
17.10.2018 13:00:00 11,0 5,0 - - - 10
17.10.2018 12:00:00 10,0 6,0 - - - 10
17.10.2018 11:00:00 6,8 4,5 0 0 N 20
17.10.2018 10:00:00 4,0 4,0 - - - 10
17.10.2018 09:00:00 2,0 1,0 - - - 5
17.10.2018 08:00:00 2,2 1,8 0 0 N 5
17.10.2018 07:00:00 - - - - - -
17.10.2018 06:00:00 - - - - - -
17.10.2018 05:00:00 - - - - - -
17.10.2018 04:00:00 - - - - - -
17.10.2018 03:00:00 - - - - - -
17.10.2018 02:00:00 - - - - - -
17.10.2018 01:00:00 - - - - - -
17.10.2018 00:00:00 - - - - - -
16.10.2018 23:00:00 - - - - - -
16.10.2018 22:00:00 - - - - - -
16.10.2018 21:00:00 - - - - - -
16.10.2018 20:00:00 8,5 6,3 0 0 N 15
16.10.2018 19:00:00 10,0 7,0 - - - 10
16.10.2018 18:00:00 11,0 7,0 - - - 10
16.10.2018 17:00:00 12,4 6,9 0 0 N 20
16.10.2018 16:00:00 13,0 6,0 - - - 10
16.10.2018 15:00:00 13,0 5,0 - - - 10
16.10.2018 14:00:00 12,1 4,6 0 0 N 28
16.10.2018 13:00:00 11,0 6,0 4 2 - 10
16.10.2018 12:00:00 10,0 6,0 - - - 10
16.10.2018 11:00:00 7,0 5,5 4 2 N 25
16.10.2018 10:00:00 4,0 4,0 2 1 - 10
16.10.2018 09:00:00 2,0 2,0 - - - 0,5
16.10.2018 08:00:00 2,0 1,3 0 0 N 3,0
16.10.2018 07:00:00 - - - - - -
16.10.2018 06:00:00 - - - - - -
16.10.2018 05:00:00 - - - - - -
16.10.2018 04:00:00 - - - - - -
16.10.2018 03:00:00 - - - - - -
16.10.2018 02:00:00 - - - - - -
16.10.2018 01:00:00 - - - - - -
16.10.2018 00:00:00 - - - - - -
15.10.2018 23:00:00 - - - - - -
15.10.2018 22:00:00 - - - - - -
15.10.2018 21:00:00 - - - - - -
15.10.2018 20:00:00 8,5 8,1 5 3 N 10
15.10.2018 19:00:00 9,0 8,0 5 3 - 10
15.10.2018 18:00:00 10,0 8,0 8 4 - 10
15.10.2018 17:00:00 11,7 7,4 8 4 E 18
15.10.2018 16:00:00 12,0 8,0 13 7 - 10
15.10.2018 15:00:00 12,0 8,0 13 7 - 10
15.10.2018 14:00:00 11,7 8,2 15 8 E 15
15.10.2018 13:00:00 10,0 7,0 13 7 - 10
15.10.2018 12:00:00 10,0 7,0 11 6 - 10
15.10.2018 11:00:00 9,0 6,8 11 6 E 14
15.10.2018 10:00:00 8,0 6,0 8 4 - 10
15.10.2018 09:00:00 8,0 6,0 4 2 - 10
15.10.2018 08:00:00 7,6 6,1 4 2 - 10
15.10.2018 07:00:00 - - - - - -
15.10.2018 06:00:00 - - - - - -
15.10.2018 05:00:00 - - - - - -
15.10.2018 04:00:00 - - - - - -
15.10.2018 03:00:00 - - - - - -
15.10.2018 02:00:00 - - - - - -
15.10.2018 01:00:00 - - - - - -
15.10.2018 00:00:00 - - - - - -
14.10.2018 23:00:00 - - - - - -
14.10.2018 22:00:00 - - - - - -
14.10.2018 21:00:00 - - - - - -
14.10.2018 20:00:00 11,2 6,9 4 2 E 12
14.10.2018 19:00:00 12,0 7,0 - - - 10
14.10.2018 18:00:00 13,0 7,0 - - - 10
14.10.2018 17:00:00 14,2 6,8 11 6 E 20
14.10.2018 16:00:00 14,0 7,0 - - - 10
14.10.2018 15:00:00 14,0 7,0 - - - 10
14.10.2018 14:00:00 13,6 6,2 15 8 E 25
14.10.2018 13:00:00 13,0 6,0 - - - 10
14.10.2018 12:00:00 12,0 6,0 - - - 10
14.10.2018 11:00:00 10,2 5,8 9 5 E 12
14.10.2018 10:00:00 6,0 5,0 - - - 10
14.10.2018 09:00:00 5,0 4,0 - - - 6
14.10.2018 08:00:00 4,4 3,5 0 0 N 4,0
14.10.2018 07:00:00 - - - - - -
14.10.2018 06:00:00 - - - - - -
14.10.2018 05:00:00 - - - - - -
14.10.2018 04:00:00 - - - - - -
14.10.2018 03:00:00 - - - - - -
14.10.2018 02:00:00 - - - - - -
14.10.2018 01:00:00 - - - - - -
14.10.2018 00:00:00 - - - - - -
13.10.2018 23:00:00 - - - - - -
13.10.2018 22:00:00 - - - - - -
13.10.2018 21:00:00 - - - - - -
13.10.2018 20:00:00 11,4 6,9 15 8 E 12
13.10.2018 19:00:00 13,0 6,0 - - - 10
13.10.2018 18:00:00 14,0 5,0 - - - 10
13.10.2018 17:00:00 14,8 3,3 18 10 E 25
13.10.2018 16:00:00 15,0 4,0 - - - 10
13.10.2018 15:00:00 15,0 5,0 - - - 10
13.10.2018 14:00:00 14,2 6,5 22 12 E 25
13.10.2018 13:00:00 13,0 8,0 - - - 10
13.10.2018 12:00:00 12,0 8,0 - - - 10
13.10.2018 11:00:00 11,0 7,7 11 6 E 6
13.10.2018 10:00:00 9,0 8,0 - - - 4,0
13.10.2018 09:00:00 7,0 6,0 - - - 4,0
13.10.2018 08:00:00 5,2 4,8 0 0 N 4,0
13.10.2018 07:00:00 - - - - - -
13.10.2018 06:00:00 - - - - - -
13.10.2018 05:00:00 - - - - - -
13.10.2018 04:00:00 - - - - - -
13.10.2018 03:00:00 - - - - - -
13.10.2018 02:00:00 - - - - - -
13.10.2018 01:00:00 - - - - - -
13.10.2018 00:00:00 - - - - - -
12.10.2018 23:00:00 - - - - - -
12.10.2018 22:00:00 - - - - - -
12.10.2018 21:00:00 - - - - - -
12.10.2018 20:00:00 13,2 9,1 0 0 N 12
12.10.2018 19:00:00 14,0 9,0 - - - 10

tt = temperature
td = dewpoint
ff = wind speed
dd = wind direction
vv = visibility

Next stations